sensor_id;sensor_type;location;lat;lon;timestamp;pressure;altitude;pressure_sealevel;temperature;humidity
80308;BME280;69616;43.522;1.348;2024-03-23T00:54:22;100359.94;;;16.00;70.68
80308;BME280;69616;43.522;1.348;2024-03-23T00:56:47;100367.91;;;15.98;70.87
80308;BME280;69616;43.522;1.348;2024-03-23T00:59:12;100363.50;;;15.99;70.68
80308;BME280;69616;43.522;1.348;2024-03-23T01:01:39;100374.97;;;15.99;70.89
80308;BME280;69616;43.522;1.348;2024-03-23T01:04:04;100381.25;;;15.97;70.80
80308;BME280;69616;43.522;1.348;2024-03-23T01:06:29;100388.31;;;15.98;70.87
80308;BME280;69616;43.522;1.348;2024-03-23T01:08:55;100394.56;;;15.95;71.13
80308;BME280;69616;43.522;1.348;2024-03-23T01:11:20;100384.00;;;15.92;71.04
80308;BME280;69616;43.522;1.348;2024-03-23T01:13:45;100396.38;;;15.93;71.04
80308;BME280;69616;43.522;1.348;2024-03-23T01:16:11;100399.03;;;15.93;71.23
80308;BME280;69616;43.522;1.348;2024-03-23T01:18:37;100398.19;;;15.91;71.17
80308;BME280;69616;43.522;1.348;2024-03-23T01:21:03;100408.81;;;15.91;71.01
80308;BME280;69616;43.522;1.348;2024-03-23T01:23:28;100412.31;;;15.93;70.94
80308;BME280;69616;43.522;1.348;2024-03-23T01:25:57;100409.66;;;15.93;70.79
80308;BME280;69616;43.522;1.348;2024-03-23T01:28:22;100406.16;;;15.92;71.01
80308;BME280;69616;43.522;1.348;2024-03-23T01:30:48;100398.25;;;15.88;71.08
80308;BME280;69616;43.522;1.348;2024-03-23T01:33:14;100408.81;;;15.91;70.84
80308;BME280;69616;43.522;1.348;2024-03-23T01:35:39;100408.00;;;15.89;70.85
80308;BME280;69616;43.522;1.348;2024-03-23T01:38:05;100407.09;;;15.88;71.16
80308;BME280;69616;43.522;1.348;2024-03-23T01:40:31;100409.78;;;15.87;70.95
80308;BME280;69616;43.522;1.348;2024-03-23T01:43:04;100405.38;;;15.86;71.08
80308;BME280;69616;43.522;1.348;2024-03-23T01:45:30;100414.19;;;15.88;70.62
80308;BME280;69616;43.522;1.348;2024-03-23T01:47:56;100417.72;;;15.88;70.51
80308;BME280;69616;43.522;1.348;2024-03-23T01:50:22;100429.28;;;15.86;70.19
80308;BME280;69616;43.522;1.348;2024-03-23T01:52:49;100428.44;;;15.84;70.42
80308;BME280;69616;43.522;1.348;2024-03-23T01:55:16;100428.56;;;15.77;69.91
80308;BME280;69616;43.522;1.348;2024-03-23T01:57:41;100431.19;;;15.81;69.87
80308;BME280;69616;43.522;1.348;2024-03-23T02:00:07;100433.94;;;15.76;69.19
80308;BME280;69616;43.522;1.348;2024-03-23T02:02:34;100433.09;;;15.74;69.05
80308;BME280;69616;43.522;1.348;2024-03-23T02:05:00;100434.91;;;15.72;68.82
80308;BME280;69616;43.522;1.348;2024-03-23T02:07:25;100430.59;;;15.68;68.23
80308;BME280;69616;43.522;1.348;2024-03-23T02:09:51;100448.34;;;15.64;67.73
80308;BME280;69616;43.522;1.348;2024-03-23T02:12:17;100443.94;;;15.63;67.68
80308;BME280;69616;43.522;1.348;2024-03-23T02:14:43;100440.41;;;15.62;67.00
80308;BME280;69616;43.522;1.348;2024-03-23T02:17:09;100450.25;;;15.59;66.57
80308;BME280;69616;43.522;1.348;2024-03-23T02:19:34;100453.84;;;15.55;66.83
80308;BME280;69616;43.522;1.348;2024-03-23T02:21:59;100463.59;;;15.54;66.49
80308;BME280;69616;43.522;1.348;2024-03-23T02:24:25;100464.59;;;15.50;66.28
80308;BME280;69616;43.522;1.348;2024-03-23T02:26:50;100473.53;;;15.44;65.67
80308;BME280;69616;43.522;1.348;2024-03-23T02:29:15;100470.13;;;15.39;65.68
80308;BME280;69616;43.522;1.348;2024-03-23T02:31:41;100477.25;;;15.35;65.83
80308;BME280;69616;43.522;1.348;2024-03-23T02:34:07;100472.91;;;15.31;65.79
80308;BME280;69616;43.522;1.348;2024-03-23T02:36:32;100485.28;;;15.31;65.19
80308;BME280;69616;43.522;1.348;2024-03-23T02:38:58;100495.06;;;15.29;65.21
80308;BME280;69616;43.522;1.348;2024-03-23T02:41:23;100493.44;;;15.21;65.10
80308;BME280;69616;43.522;1.348;2024-03-23T02:43:49;100493.53;;;15.17;64.84
80308;BME280;69616;43.522;1.348;2024-03-23T02:46:15;100489.19;;;15.13;64.83
80308;BME280;69616;43.522;1.348;2024-03-23T02:48:40;100488.41;;;15.07;64.82
80308;BME280;69616;43.522;1.348;2024-03-23T02:51:06;100496.50;;;15.01;64.68
80308;BME280;69616;43.522;1.348;2024-03-23T02:53:31;100496.63;;;14.95;64.60
80308;BME280;69616;43.522;1.348;2024-03-23T02:55:58;100505.44;;;14.94;64.72
80308;BME280;69616;43.522;1.348;2024-03-23T02:58:23;100493.97;;;14.93;64.40
80308;BME280;69616;43.522;1.348;2024-03-23T03:00:49;100494.00;;;14.92;64.05
80308;BME280;69616;43.522;1.348;2024-03-23T03:03:14;100487.91;;;14.88;63.98
80308;BME280;69616;43.522;1.348;2024-03-23T03:05:39;100494.16;;;14.84;63.64
80308;BME280;69616;43.522;1.348;2024-03-23T03:08:05;100503.88;;;14.84;63.71
80308;BME280;69616;43.522;1.348;2024-03-23T03:10:30;100497.72;;;14.83;63.71
80308;BME280;69616;43.522;1.348;2024-03-23T03:13:00;100491.53;;;14.81;63.59
80308;BME280;69616;43.522;1.348;2024-03-23T03:15:25;100488.88;;;14.81;63.65
80308;BME280;69616;43.522;1.348;2024-03-23T03:17:50;100500.47;;;14.77;63.51
80308;BME280;69616;43.522;1.348;2024-03-23T03:20:16;100501.47;;;14.71;63.47
80308;BME280;69616;43.522;1.348;2024-03-23T03:22:43;100508.66;;;14.61;63.65
80308;BME280;69616;43.522;1.348;2024-03-23T03:25:08;100522.84;;;14.57;63.76
80308;BME280;69616;43.522;1.348;2024-03-23T03:27:33;100530.94;;;14.49;63.98
80308;BME280;69616;43.522;1.348;2024-03-23T03:30:00;100525.75;;;14.42;64.20
80308;BME280;69616;43.522;1.348;2024-03-23T03:32:32;100521.44;;;14.34;64.43
80308;BME280;69616;43.522;1.348;2024-03-23T03:34:57;100502.13;;;14.28;64.77
80308;BME280;69616;43.522;1.348;2024-03-23T03:37:23;100504.84;;;14.23;64.96
80308;BME280;69616;43.522;1.348;2024-03-23T03:39:48;100500.44;;;14.24;65.11
80308;BME280;69616;43.522;1.348;2024-03-23T03:42:14;100511.88;;;14.24;65.09
80308;BME280;69616;43.522;1.348;2024-03-23T03:44:39;100504.84;;;14.21;65.33
80308;BME280;69616;43.522;1.348;2024-03-23T03:47:05;100505.72;;;14.24;65.07
80308;BME280;69616;43.522;1.348;2024-03-23T03:49:31;100511.88;;;14.24;65.10
80308;BME280;69616;43.522;1.348;2024-03-23T03:51:56;100518.13;;;14.20;65.39
80308;BME280;69616;43.522;1.348;2024-03-23T03:54:21;100516.44;;;14.16;65.47
80308;BME280;69616;43.522;1.348;2024-03-23T03:56:47;100516.56;;;14.06;65.36
80308;BME280;69616;43.522;1.348;2024-03-23T03:59:12;100522.00;;;13.97;65.16
80308;BME280;69616;43.522;1.348;2024-03-23T04:01:38;100532.69;;;13.91;65.28
80308;BME280;69616;43.522;1.348;2024-03-23T04:04:03;100526.53;;;13.86;65.28
80308;BME280;69616;43.522;1.348;2024-03-23T04:06:29;100529.22;;;13.84;65.29
80308;BME280;69616;43.522;1.348;2024-03-23T04:08:54;100537.22;;;13.81;65.32
80308;BME280;69616;43.522;1.348;2024-03-23T04:11:19;100545.22;;;13.76;64.75
80308;BME280;69616;43.522;1.348;2024-03-23T04:13:45;100561.16;;;13.70;64.88
80308;BME280;69616;43.522;1.348;2024-03-23T04:16:10;100569.16;;;13.66;64.50
80308;BME280;69616;43.522;1.348;2024-03-23T04:18:36;100574.56;;;13.56;64.31
80308;BME280;69616;43.522;1.348;2024-03-23T04:21:01;100588.72;;;13.49;64.33
80308;BME280;69616;43.522;1.348;2024-03-23T04:23:27;100586.16;;;13.44;64.42
80308;BME280;69616;43.522;1.348;2024-03-23T04:25:52;100591.44;;;13.44;64.36
80308;BME280;69616;43.522;1.348;2024-03-23T04:28:19;100590.56;;;13.45;64.44
80308;BME280;69616;43.522;1.348;2024-03-23T04:30:44;100603.78;;;13.45;64.11
80308;BME280;69616;43.522;1.348;2024-03-23T04:33:10;100595.00;;;13.43;63.84
80308;BME280;69616;43.522;1.348;2024-03-23T04:35:35;100601.16;;;13.41;63.50
80308;BME280;69616;43.522;1.348;2024-03-23T04:38:01;100608.22;;;13.37;63.77
80308;BME280;69616;43.522;1.348;2024-03-23T04:40:26;100608.25;;;13.35;63.56
80308;BME280;69616;43.522;1.348;2024-03-23T04:42:51;100612.69;;;13.33;63.57
80308;BME280;69616;43.522;1.348;2024-03-23T04:45:17;100605.63;;;13.34;63.12
80308;BME280;69616;43.522;1.348;2024-03-23T04:47:42;100613.56;;;13.34;63.50
80308;BME280;69616;43.522;1.348;2024-03-23T04:50:08;100608.28;;;13.32;63.30
80308;BME280;69616;43.522;1.348;2024-03-23T04:52:35;100605.66;;;13.31;63.29
80308;BME280;69616;43.522;1.348;2024-03-23T04:55:01;100610.97;;;13.28;63.18
80308;BME280;69616;43.522;1.348;2024-03-23T04:57:26;100611.00;;;13.25;63.35
80308;BME280;69616;43.522;1.348;2024-03-23T04:59:52;100612.81;;;13.19;63.34
80308;BME280;69616;43.522;1.348;2024-03-23T05:02:17;100618.16;;;13.13;63.52
80308;BME280;69616;43.522;1.348;2024-03-23T05:04:42;100617.28;;;13.14;63.59
80308;BME280;69616;43.522;1.348;2024-03-23T05:07:08;100620.78;;;13.15;63.48
80308;BME280;69616;43.522;1.348;2024-03-23T05:09:33;100621.66;;;13.18;63.49
80308;BME280;69616;43.522;1.348;2024-03-23T05:11:59;100623.41;;;13.19;63.51
80308;BME280;69616;43.522;1.348;2024-03-23T05:14:28;100620.72;;;13.23;63.28
80308;BME280;69616;43.522;1.348;2024-03-23T05:16:54;100618.03;;;13.26;63.43
80308;BME280;69616;43.522;1.348;2024-03-23T05:19:19;100618.03;;;13.26;63.35
80308;BME280;69616;43.522;1.348;2024-03-23T05:21:44;100625.09;;;13.27;63.32
80308;BME280;69616;43.522;1.348;2024-03-23T05:24:11;100625.94;;;13.30;63.44
80308;BME280;69616;43.522;1.348;2024-03-23T05:26:37;100623.28;;;13.32;63.56
80308;BME280;69616;43.522;1.348;2024-03-23T05:29:03;100632.97;;;13.33;63.29
80308;BME280;69616;43.522;1.348;2024-03-23T05:31:29;100638.25;;;13.33;63.63
80308;BME280;69616;43.522;1.348;2024-03-23T05:33:55;100638.22;;;13.38;63.64
80308;BME280;69616;43.522;1.348;2024-03-23T05:36:21;100640.81;;;13.42;63.36
80308;BME280;69616;43.522;1.348;2024-03-23T05:38:47;100645.25;;;13.43;63.51
80308;BME280;69616;43.522;1.348;2024-03-23T05:41:12;100647.00;;;13.43;63.41
80308;BME280;69616;43.522;1.348;2024-03-23T05:43:38;100649.63;;;13.46;63.39
80308;BME280;69616;43.522;1.348;2024-03-23T05:46:03;100648.75;;;13.44;63.67
80308;BME280;69616;43.522;1.348;2024-03-23T05:48:30;100649.66;;;13.44;63.58
80308;BME280;69616;43.522;1.348;2024-03-23T05:50:56;100649.66;;;13.44;63.68
80308;BME280;69616;43.522;1.348;2024-03-23T05:53:22;100654.94;;;13.44;63.40
80308;BME280;69616;43.522;1.348;2024-03-23T05:55:49;100645.22;;;13.45;63.66
80308;BME280;69616;43.522;1.348;2024-03-23T05:58:15;100657.56;;;13.46;63.87
80308;BME280;69616;43.522;1.348;2024-03-23T06:00:41;100656.69;;;13.45;64.01
80308;BME280;69616;43.522;1.348;2024-03-23T06:03:09;100662.88;;;13.40;64.30
80308;BME280;69616;43.522;1.348;2024-03-23T06:05:35;100676.13;;;13.37;65.19
80308;BME280;69616;43.522;1.348;2024-03-23T06:08:01;100671.78;;;13.32;65.41
80308;BME280;69616;43.522;1.348;2024-03-23T06:10:28;100669.22;;;13.21;66.14
80308;BME280;69616;43.522;1.348;2024-03-23T06:12:53;100669.28;;;13.15;66.57
80308;BME280;69616;43.522;1.348;2024-03-23T06:15:19;100673.72;;;13.09;66.83
80308;BME280;69616;43.522;1.348;2024-03-23T06:17:44;100673.72;;;13.07;67.37
80308;BME280;69616;43.522;1.348;2024-03-23T06:20:10;100673.72;;;13.07;67.08
80308;BME280;69616;43.522;1.348;2024-03-23T06:22:35;100685.16;;;13.09;67.22
80308;BME280;69616;43.522;1.348;2024-03-23T06:25:01;100682.53;;;13.11;67.36
80308;BME280;69616;43.522;1.348;2024-03-23T06:27:26;100689.53;;;13.13;67.22
80308;BME280;69616;43.522;1.348;2024-03-23T06:29:52;100682.50;;;13.14;67.36
80308;BME280;69616;43.522;1.348;2024-03-23T06:32:17;100693.06;;;13.18;67.28
80308;BME280;69616;43.522;1.348;2024-03-23T06:34:43;100693.91;;;13.20;67.25
80308;BME280;69616;43.522;1.348;2024-03-23T06:37:09;100694.81;;;13.19;67.31
80308;BME280;69616;43.522;1.348;2024-03-23T06:39:38;100698.31;;;13.21;66.85
80308;BME280;69616;43.522;1.348;2024-03-23T06:42:04;100701.81;;;13.22;67.03
80308;BME280;69616;43.522;1.348;2024-03-23T06:44:29;100707.13;;;13.20;67.22
80308;BME280;69616;43.522;1.348;2024-03-23T06:46:55;100713.31;;;13.19;67.38
80308;BME280;69616;43.522;1.348;2024-03-23T06:49:21;100708.88;;;13.20;67.70
80308;BME280;69616;43.522;1.348;2024-03-23T06:51:46;100715.94;;;13.21;67.67
80308;BME280;69616;43.522;1.348;2024-03-23T06:54:12;100716.81;;;13.21;68.08
80308;BME280;69616;43.522;1.348;2024-03-23T06:56:37;100717.69;;;13.24;68.03
80308;BME280;69616;43.522;1.348;2024-03-23T06:59:02;100721.28;;;13.15;69.21
80308;BME280;69616;43.522;1.348;2024-03-23T07:01:28;100727.47;;;13.09;69.74
80308;BME280;69616;43.522;1.348;2024-03-23T07:03:56;100719.63;;;13.00;70.49
80308;BME280;69616;43.522;1.348;2024-03-23T07:06:23;100724.94;;;12.97;70.70
80308;BME280;69616;43.522;1.348;2024-03-23T07:08:48;100728.44;;;12.97;70.85
80308;BME280;69616;43.522;1.348;2024-03-23T07:11:21;100732.84;;;12.95;71.23
80308;BME280;69616;43.522;1.348;2024-03-23T07:13:46;100724.94;;;12.95;71.59
80308;BME280;69616;43.522;1.348;2024-03-23T07:16:14;100732.91;;;12.90;71.96
80308;BME280;69616;43.522;1.348;2024-03-23T07:18:39;100733.78;;;12.86;72.28
80308;BME280;69616;43.522;1.348;2024-03-23T07:21:05;100731.16;;;12.83;72.78
80308;BME280;69616;43.522;1.348;2024-03-23T07:23:32;100736.50;;;12.77;72.75
80308;BME280;69616;43.522;1.348;2024-03-23T07:28:23;100736.53;;;12.71;73.35
80308;BME280;69616;43.522;1.348;2024-03-23T07:30:48;100742.69;;;12.71;73.43
80308;BME280;69616;43.522;1.348;2024-03-23T07:33:23;100755.94;;;12.63;73.74
80308;BME280;69616;43.522;1.348;2024-03-23T07:35:49;100767.44;;;12.58;73.58
80308;BME280;69616;43.522;1.348;2024-03-23T07:38:14;100758.66;;;12.43;73.58
80308;BME280;69616;43.522;1.348;2024-03-23T07:40:39;100767.50;;;12.34;73.47
80308;BME280;69616;43.522;1.348;2024-03-23T07:43:05;100766.63;;;12.28;73.61
80308;BME280;69616;43.522;1.348;2024-03-23T07:45:30;100775.47;;;12.22;73.82
80308;BME280;69616;43.522;1.348;2024-03-23T07:47:56;100781.66;;;12.18;73.88
80308;BME280;69616;43.522;1.348;2024-03-23T07:50:21;100775.47;;;12.19;73.61
80308;BME280;69616;43.522;1.348;2024-03-23T07:52:46;100782.53;;;12.20;73.62
80308;BME280;69616;43.522;1.348;2024-03-23T07:55:12;100791.31;;;12.16;73.16
80308;BME280;69616;43.522;1.348;2024-03-23T07:57:37;100796.59;;;12.10;73.23
80308;BME280;69616;43.522;1.348;2024-03-23T08:00:03;100794.84;;;11.99;72.84
80308;BME280;69616;43.522;1.348;2024-03-23T08:02:28;100801.91;;;11.94;73.15
80308;BME280;69616;43.522;1.348;2024-03-23T08:04:54;100801.00;;;11.86;72.93
80308;BME280;69616;43.522;1.348;2024-03-23T08:07:19;100810.66;;;11.87;72.81
80308;BME280;69616;43.522;1.348;2024-03-23T08:09:44;100809.78;;;11.85;73.02
80308;BME280;69616;43.522;1.348;2024-03-23T08:12:10;100825.66;;;11.86;72.92
80308;BME280;69616;43.522;1.348;2024-03-23T08:14:35;100822.97;;;11.88;72.88
80308;BME280;69616;43.522;1.348;2024-03-23T08:17:01;100818.56;;;11.93;72.76
80308;BME280;69616;43.522;1.348;2024-03-23T08:19:26;100824.75;;;11.94;72.85
80308;BME280;69616;43.522;1.348;2024-03-23T08:21:51;100825.63;;;11.91;72.77
80308;BME280;69616;43.522;1.348;2024-03-23T08:24:17;100824.75;;;11.89;72.73
80308;BME280;69616;43.522;1.348;2024-03-23T08:26:42;100838.81;;;11.91;72.79
80308;BME280;69616;43.522;1.348;2024-03-23T08:29:07;100844.97;;;11.93;72.82
80308;BME280;69616;43.522;1.348;2024-03-23T08:31:33;100842.34;;;11.96;72.28
80308;BME280;69616;43.522;1.348;2024-03-23T08:33:58;100852.91;;;11.96;72.16
80308;BME280;69616;43.522;1.348;2024-03-23T08:36:24;100860.81;;;11.98;71.89
80308;BME280;69616;43.522;1.348;2024-03-23T08:38:49;100853.78;;;12.00;72.02
80308;BME280;69616;43.522;1.348;2024-03-23T08:41:15;100856.44;;;12.11;71.63
80308;BME280;69616;43.522;1.348;2024-03-23T08:43:41;100861.72;;;12.22;71.12
80308;BME280;69616;43.522;1.348;2024-03-23T08:46:15;100867.00;;;12.26;69.70
80308;BME280;69616;43.522;1.348;2024-03-23T08:48:42;100872.25;;;12.32;69.52
80308;BME280;69616;43.522;1.348;2024-03-23T08:51:10;100874.00;;;12.37;68.71
80308;BME280;69616;43.522;1.348;2024-03-23T08:53:36;100866.97;;;12.35;67.58
80308;BME280;69616;43.522;1.348;2024-03-23T08:56:02;100867.84;;;12.38;66.10
80308;BME280;69616;43.522;1.348;2024-03-23T08:58:29;100880.16;;;12.42;65.18
80308;BME280;69616;43.522;1.348;2024-03-23T09:00:55;100875.75;;;12.41;62.63
80308;BME280;69616;43.522;1.348;2024-03-23T09:03:24;100871.38;;;12.35;61.55
80308;BME280;69616;43.522;1.348;2024-03-23T09:05:51;100870.47;;;12.47;62.05
80308;BME280;69616;43.522;1.348;2024-03-23T09:08:16;100875.72;;;12.61;61.44
80308;BME280;69616;43.522;1.348;2024-03-23T09:10:42;100880.94;;;12.76;61.09
80308;BME280;69616;43.522;1.348;2024-03-23T09:13:08;100865.06;;;12.90;60.53
80308;BME280;69616;43.522;1.348;2024-03-23T09:15:35;100880.88;;;13.03;60.30
80308;BME280;69616;43.522;1.348;2024-03-23T09:18:00;100872.91;;;13.09;59.87
80308;BME280;69616;43.522;1.348;2024-03-23T09:20:26;100872.00;;;13.13;59.42
80308;BME280;69616;43.522;1.348;2024-03-23T09:22:51;100875.47;;;13.23;58.75
80308;BME280;69616;43.522;1.348;2024-03-23T09:25:17;100876.31;;;13.34;58.39
80308;BME280;69616;43.522;1.348;2024-03-23T09:27:42;100874.50;;;13.47;58.26
80308;BME280;69616;43.522;1.348;2024-03-23T09:30:08;100872.63;;;13.63;57.92
80308;BME280;69616;43.522;1.348;2024-03-23T09:32:35;100872.53;;;13.77;57.18
80308;BME280;69616;43.522;1.348;2024-03-23T09:35:00;100874.19;;;13.91;57.36
80308;BME280;69616;43.522;1.348;2024-03-23T09:37:26;100881.16;;;14.01;57.05
80308;BME280;69616;43.522;1.348;2024-03-23T09:39:51;100875.81;;;14.07;56.41
80308;BME280;69616;43.522;1.348;2024-03-23T09:42:16;100891.59;;;14.18;56.14
80308;BME280;69616;43.522;1.348;2024-03-23T09:44:42;100887.13;;;14.25;55.81
80308;BME280;69616;43.522;1.348;2024-03-23T09:47:08;100877.34;;;14.35;55.51
80308;BME280;69616;43.522;1.348;2024-03-23T09:49:34;100880.69;;;14.53;54.98
80308;BME280;69616;43.522;1.348;2024-03-23T09:52:02;100880.59;;;14.63;54.52
80308;BME280;69616;43.522;1.348;2024-03-23T09:54:28;100877.88;;;14.67;53.55
80308;BME280;69616;43.522;1.348;2024-03-23T09:56:53;100878.78;;;14.66;53.12
80308;BME280;69616;43.522;1.348;2024-03-23T09:59:18;100879.63;;;14.71;53.22
80308;BME280;69616;43.522;1.348;2024-03-23T10:01:44;100872.41;;;14.85;52.70
80308;BME280;69616;43.522;1.348;2024-03-23T10:04:10;100872.38;;;14.88;51.09
80308;BME280;69616;43.522;1.348;2024-03-23T10:06:35;100860.91;;;14.85;49.66
80308;BME280;69616;43.522;1.348;2024-03-23T10:09:02;100859.97;;;14.90;50.47
80308;BME280;69616;43.522;1.348;2024-03-23T10:11:27;100859.94;;;14.93;49.19
80308;BME280;69616;43.522;1.348;2024-03-23T10:13:54;100860.75;;;15.00;48.87
80308;BME280;69616;43.522;1.348;2024-03-23T10:16:23;100857.09;;;15.07;48.46
80308;BME280;69616;43.522;1.348;2024-03-23T10:18:49;100857.91;;;15.14;48.16
80308;BME280;69616;43.522;1.348;2024-03-23T10:21:15;100852.44;;;15.24;48.28
80308;BME280;69616;43.522;1.348;2024-03-23T10:23:42;100838.19;;;15.31;47.38
80308;BME280;69616;43.522;1.348;2024-03-23T10:26:22;100844.34;;;15.34;47.60
80308;BME280;69616;43.522;1.348;2024-03-23T10:31:33;100847.59;;;15.54;46.87
80308;BME280;69616;43.522;1.348;2024-03-23T10:34:01;100847.41;;;15.68;45.55
80308;BME280;69616;43.522;1.348;2024-03-23T10:36:26;100845.31;;;15.88;46.22
80308;BME280;69616;43.522;1.348;2024-03-23T10:38:53;100837.91;;;16.07;45.55
80308;BME280;69616;43.522;1.348;2024-03-23T10:41:19;100836.78;;;16.21;45.68
80308;BME280;69616;43.522;1.348;2024-03-23T10:43:48;100829.38;;;16.37;44.90
80308;BME280;69616;43.522;1.348;2024-03-23T10:46:15;100818.38;;;16.57;44.86
80308;BME280;69616;43.522;1.348;2024-03-23T10:48:40;100820.75;;;16.71;45.33
80308;BME280;69616;43.522;1.348;2024-03-23T10:51:07;100815.97;;;16.87;45.41
80308;BME280;69616;43.522;1.348;2024-03-23T10:53:34;100810.22;;;17.09;44.85
80308;BME280;69616;43.522;1.348;2024-03-23T10:56:00;100814.16;;;17.30;44.94
80308;BME280;69616;43.522;1.348;2024-03-23T10:58:36;100797.09;;;17.39;44.76
80308;BME280;69616;43.522;1.348;2024-03-23T11:01:03;100790.69;;;17.48;44.43
80308;BME280;69616;43.522;1.348;2024-03-23T11:03:30;100795.84;;;17.54;43.67
80308;BME280;69616;43.522;1.348;2024-03-23T11:05:55;100788.78;;;17.53;43.44
80308;BME280;69616;43.522;1.348;2024-03-23T11:08:38;100783.59;;;17.48;43.65
80308;BME280;69616;43.522;1.348;2024-03-23T11:11:33;100792.34;;;17.54;43.79
80308;BME280;69616;43.522;1.348;2024-03-23T11:13:59;100782.97;;;17.73;43.52
80308;BME280;69616;43.522;1.348;2024-03-23T11:16:26;100774.56;;;17.89;43.40
80308;BME280;69616;43.522;1.348;2024-03-23T11:19:34;100776.13;;;17.98;43.13
80308;BME280;69616;43.522;1.348;2024-03-23T11:22:01;100766.84;;;18.14;42.18
80308;BME280;69616;43.522;1.348;2024-03-23T11:24:27;100767.56;;;18.19;41.64
80308;BME280;69616;43.522;1.348;2024-03-23T11:26:52;100758.44;;;18.28;41.73
80308;BME280;69616;43.522;1.348;2024-03-23T11:29:18;100760.66;;;18.44;41.51
80308;BME280;69616;43.522;1.348;2024-03-23T11:31:51;100755.69;;;18.61;41.15
80308;BME280;69616;43.522;1.348;2024-03-23T11:34:18;100742.94;;;18.73;40.87
80308;BME280;69616;43.522;1.348;2024-03-23T11:36:44;100739.06;;;18.83;39.70
80308;BME280;69616;43.522;1.348;2024-03-23T11:44:29;100725.56;;;18.88;39.41
80308;BME280;69616;43.522;1.348;2024-03-23T11:47:07;100722.94;;;18.86;37.72
80308;BME280;69616;43.522;1.348;2024-03-23T11:49:33;100711.66;;;18.78;38.19
80308;BME280;69616;43.522;1.348;2024-03-23T11:51:58;100718.09;;;18.71;38.22
80308;BME280;69616;43.522;1.348;2024-03-23T11:54:26;100710.81;;;18.76;39.25
80308;BME280;69616;43.522;1.348;2024-03-23T11:57:02;100705.19;;;18.85;38.44
80308;BME280;69616;43.522;1.348;2024-03-23T11:59:40;100703.56;;;18.79;38.06
80308;BME280;69616;43.522;1.348;2024-03-23T12:02:12;100702.63;;;18.82;37.14
80308;BME280;69616;43.522;1.348;2024-03-23T12:04:41;100700.88;;;18.81;38.06
80308;BME280;69616;43.522;1.348;2024-03-23T12:07:11;100695.34;;;18.87;38.54
80308;BME280;69616;43.522;1.348;2024-03-23T12:09:37;100680.63;;;19.04;38.53
80308;BME280;69616;43.522;1.348;2024-03-23T12:12:17;100676.22;;;19.01;37.77
80308;BME280;69616;43.522;1.348;2024-03-23T12:15:01;100675.28;;;19.04;38.41
80308;BME280;69616;43.522;1.348;2024-03-23T12:17:27;100666.19;;;19.10;38.02
80308;BME280;69616;43.522;1.348;2024-03-23T12:19:52;100674.09;;;19.13;37.98
80308;BME280;69616;43.522;1.348;2024-03-23T12:22:21;100666.34;;;19.05;36.91
80308;BME280;69616;43.522;1.348;2024-03-23T12:24:47;100664.78;;;18.98;37.64
80308;BME280;69616;43.522;1.348;2024-03-23T12:27:12;100657.41;;;19.06;37.83
80308;BME280;69616;43.522;1.348;2024-03-23T12:29:38;100648.16;;;19.16;38.02
80308;BME280;69616;43.522;1.348;2024-03-23T12:32:04;100644.94;;;19.33;38.46
80308;BME280;69616;43.522;1.348;2024-03-23T12:34:30;100635.50;;;19.48;37.26
80308;BME280;69616;43.522;1.348;2024-03-23T12:36:56;100625.63;;;19.50;37.37
80308;BME280;69616;43.522;1.348;2024-03-23T12:39:22;100621.06;;;19.54;37.55
80308;BME280;69616;43.522;1.348;2024-03-23T12:41:48;100621.59;;;19.64;37.43
80308;BME280;69616;43.522;1.348;2024-03-23T12:44:13;100617.66;;;19.74;37.10
80308;BME280;69616;43.522;1.348;2024-03-23T12:46:41;100617.78;;;19.71;36.32
80308;BME280;69616;43.522;1.348;2024-03-23T12:49:06;100614.28;;;19.69;37.09
80308;BME280;69616;43.522;1.348;2024-03-23T12:51:32;100609.81;;;19.70;36.72
80308;BME280;69616;43.522;1.348;2024-03-23T12:53:58;100602.56;;;19.73;36.64
80308;BME280;69616;43.522;1.348;2024-03-23T12:56:23;100601.63;;;19.74;36.33
80308;BME280;69616;43.522;1.348;2024-03-23T12:58:49;100592.13;;;19.67;35.70
80308;BME280;69616;43.522;1.348;2024-03-23T13:01:17;100594.66;;;19.70;36.42
80308;BME280;69616;43.522;1.348;2024-03-23T13:03:42;100596.28;;;19.74;35.79
80308;BME280;69616;43.522;1.348;2024-03-23T13:06:10;100586.25;;;19.81;36.04
80308;BME280;69616;43.522;1.348;2024-03-23T13:08:35;100570.81;;;19.88;36.24
80308;BME280;69616;43.522;1.348;2024-03-23T13:11:00;100573.38;;;19.92;35.38
80308;BME280;69616;43.522;1.348;2024-03-23T13:13:26;100577.19;;;19.85;35.51
80308;BME280;69616;43.522;1.348;2024-03-23T13:15:51;100567.19;;;19.90;36.18
80308;BME280;69616;43.522;1.348;2024-03-23T13:18:17;100567.91;;;19.96;35.81
80308;BME280;69616;43.522;1.348;2024-03-23T13:20:42;100558.78;;;20.01;35.82
80308;BME280;69616;43.522;1.348;2024-03-23T13:23:07;100561.47;;;20.01;35.80
80308;BME280;69616;43.522;1.348;2024-03-23T13:25:33;100548.91;;;20.03;35.95
80308;BME280;69616;43.522;1.348;2024-03-23T13:27:59;100552.25;;;20.08;35.55
80308;BME280;69616;43.522;1.348;2024-03-23T13:30:24;100542.28;;;20.14;36.00
80308;BME280;69616;43.522;1.348;2024-03-23T13:32:50;100541.34;;;20.15;36.12
80308;BME280;69616;43.522;1.348;2024-03-23T13:35:15;100537.75;;;20.16;36.09
80308;BME280;69616;43.522;1.348;2024-03-23T13:37:41;100528.69;;;20.18;35.91
80308;BME280;69616;43.522;1.348;2024-03-23T13:40:07;100522.78;;;20.32;36.39
80308;BME280;69616;43.522;1.348;2024-03-23T13:42:33;100532.38;;;20.38;35.68
80308;BME280;69616;43.522;1.348;2024-03-23T13:44:58;100518.88;;;20.41;36.02
80308;BME280;69616;43.522;1.348;2024-03-23T13:47:23;100518.56;;;20.49;35.58
80308;BME280;69616;43.522;1.348;2024-03-23T13:49:49;100511.09;;;20.57;35.86